Time;durP1;ratioP1;P1;durP2;ratioP2;P2;SDS_P1;SDS_P2;PMS_P1;PMS_P2;Temp;Humidity;BMP_temperature;BMP_pressure;BME280_temperature;BME280_humidity;BME280_pressure;Samples;Min_cycle;Max_cycle;Signal;HPM_P1;HPM_P2
2023/09/24 00:01:27;;;;;;;25.37;16.00;;;11.90;99.90;;;;;;4999975;28;20689;-48
2023/09/24 00:03:53;;;;;;;24.70;16.97;;;11.90;99.90;;;;;;4998703;28;20273;-47
2023/09/24 00:06:18;;;;;;;25.53;17.50;;;11.90;99.90;;;;;;4997591;28;20187;-47
2023/09/24 00:08:44;;;;;;;25.27;18.00;;;11.90;99.90;;;;;;4999656;28;20274;-47
2023/09/24 00:11:09;;;;;;;27.33;17.90;;;11.80;99.90;;;;;;4997618;28;20191;-47
2023/09/24 00:13:35;;;;;;;30.57;18.43;;;11.90;99.90;;;;;;4997402;28;20525;-47
2023/09/24 00:16:06;;;;;;;26.90;17.97;;;11.80;99.90;;;;;;4998060;28;20606;-47
2023/09/24 00:18:32;;;;;;;25.23;17.40;;;11.80;99.90;;;;;;4997636;28;20297;-47
2023/09/24 00:20:57;;;;;;;27.50;17.93;;;11.80;99.90;;;;;;4997565;28;20840;-47
2023/09/24 00:23:23;;;;;;;27.77;18.63;;;11.80;99.90;;;;;;5000873;28;20493;-48
2023/09/24 00:25:49;;;;;;;25.33;17.80;;;11.70;99.90;;;;;;4997444;28;20828;-47
2023/09/24 00:28:15;;;;;;;23.87;17.30;;;11.80;99.90;;;;;;4996780;28;20214;-47
2023/09/24 00:30:42;;;;;;;26.47;17.73;;;11.80;99.90;;;;;;4997398;28;20932;-48
2023/09/24 00:33:08;;;;;;;34.93;17.80;;;11.80;99.90;;;;;;4997714;28;20262;-47
2023/09/24 00:35:34;;;;;;;23.00;16.07;;;11.80;99.90;;;;;;5013757;28;20942;-47
2023/09/24 00:38:00;;;;;;;19.20;15.10;;;11.80;99.90;;;;;;4997333;28;20221;-47
2023/09/24 00:40:26;;;;;;;23.30;16.73;;;11.70;99.90;;;;;;5000593;28;20830;-47
2023/09/24 00:42:53;;;;;;;28.87;18.30;;;11.70;99.90;;;;;;4996910;28;20214;-47
2023/09/24 00:45:18;;;;;;;24.63;18.60;;;11.70;99.90;;;;;;4996444;28;20768;-47
2023/09/24 00:47:47;;;;;;;25.20;18.03;;;11.70;99.90;;;;;;4997446;28;20557;-47
2023/09/24 00:50:14;;;;;;;30.43;18.83;;;11.70;99.90;;;;;;5002988;28;20716;-47
2023/09/24 00:52:42;;;;;;;23.63;17.57;;;11.70;99.90;;;;;;4997315;28;20595;-47
2023/09/24 00:55:08;;;;;;;31.70;18.83;;;11.70;99.90;;;;;;4997042;28;20445;-47
2023/09/24 00:57:35;;;;;;;33.87;18.30;;;11.70;99.90;;;;;;4997360;28;20489;-47
2023/09/24 01:00:08;;;;;;;31.40;16.93;;;11.80;99.90;;;;;;4997409;28;20435;-47
2023/09/24 01:02:34;;;;;;;26.90;17.40;;;11.70;99.90;;;;;;4996658;28;20568;-48
2023/09/24 01:05:00;;;;;;;24.67;16.50;;;11.70;99.90;;;;;;4996375;28;20518;-47
2023/09/24 01:07:27;;;;;;;28.30;17.17;;;11.70;99.90;;;;;;4997212;28;20435;-47
2023/09/24 01:09:53;;;;;;;27.53;18.20;;;11.60;99.90;;;;;;4996783;28;20789;-47
2023/09/24 01:12:23;;;;;;;32.47;16.90;;;11.60;99.90;;;;;;4996840;28;20825;-47
2023/09/24 01:14:49;;;;;;;27.53;18.00;;;11.60;99.90;;;;;;5000375;28;20957;-47
2023/09/24 01:17:17;;;;;;;22.00;16.80;;;11.60;99.90;;;;;;4996242;28;21618;-48
2023/09/24 01:19:42;;;;;;;27.23;17.80;;;11.60;99.90;;;;;;4996898;28;20264;-47
2023/09/24 01:22:08;;;;;;;24.70;17.10;;;11.60;99.90;;;;;;4999780;28;20493;-47
2023/09/24 01:24:33;;;;;;;25.47;16.30;;;11.60;99.90;;;;;;4996111;28;20188;-48
2023/09/24 01:26:59;;;;;;;23.20;17.20;;;11.60;99.90;;;;;;4996799;28;20195;-47
2023/09/24 01:29:26;;;;;;;30.33;19.20;;;11.60;99.90;;;;;;4997149;28;20533;-47
2023/09/24 01:31:52;;;;;;;29.40;18.10;;;11.60;99.90;;;;;;4996799;28;20206;-47
2023/09/24 01:34:19;;;;;;;26.93;17.33;;;11.60;99.90;;;;;;4996570;28;20454;-47
2023/09/24 01:36:45;;;;;;;21.03;14.90;;;11.60;99.90;;;;;;4997933;28;20211;-48
2023/09/24 01:39:15;;;;;;;26.43;16.90;;;11.60;99.90;;;;;;5000107;28;20521;-47
2023/09/24 01:41:41;;;;;;;21.70;15.80;;;11.50;99.90;;;;;;5000302;28;20547;-47
2023/09/24 01:44:07;;;;;;;24.93;18.10;;;11.50;99.90;;;;;;5000171;28;20522;-47
2023/09/24 01:46:33;;;;;;;25.53;16.80;;;11.40;99.90;;;;;;5000952;28;20434;-48
2023/09/24 01:48:59;;;;;;;20.67;15.50;;;11.40;99.90;;;;;;5004053;28;20188;-47
2023/09/24 01:51:25;;;;;;;27.23;16.57;;;11.40;99.90;;;;;;5004975;28;20600;-46
2023/09/24 01:53:51;;;;;;;22.93;15.97;;;11.40;99.90;;;;;;5003135;28;20443;-47
2023/09/24 01:56:18;;;;;;;21.97;15.77;;;11.30;99.90;;;;;;4999889;28;20194;-47
2023/09/24 01:58:44;;;;;;;22.63;16.50;;;11.20;99.90;;;;;;5000013;28;20188;-45
2023/09/24 02:01:10;;;;;;;25.73;14.90;;;11.20;99.90;;;;;;4999951;28;20509;-47
2023/09/24 02:03:36;;;;;;;22.60;14.77;;;11.20;99.90;;;;;;4999467;28;20474;-47
2023/09/24 02:06:02;;;;;;;25.30;15.90;;;11.10;99.90;;;;;;4999098;28;20189;-48
2023/09/24 02:08:30;;;;;;;25.97;15.37;;;11.10;99.90;;;;;;4999943;28;20844;-47
2023/09/24 02:10:56;;;;;;;28.80;16.30;;;11.20;99.90;;;;;;5000184;28;20486;-47
2023/09/24 02:13:21;;;;;;;28.30;17.53;;;11.20;99.90;;;;;;4999495;28;23623;-46
2023/09/24 02:15:48;;;;;;;28.60;16.57;;;11.20;99.90;;;;;;5000108;28;20192;-47
2023/09/24 02:18:14;;;;;;;24.13;17.10;;;11.20;99.90;;;;;;4999480;28;20597;-47
2023/09/24 02:20:46;;;;;;;29.30;17.33;;;11.20;99.90;;;;;;4999660;28;20437;-46
2023/09/24 02:23:12;;;;;;;30.20;15.53;;;11.30;99.90;;;;;;5002868;28;20675;-47
2023/09/24 02:25:37;;;;;;;22.10;15.80;;;11.20;99.90;;;;;;4999477;28;20442;-47
2023/09/24 02:28:04;;;;;;;27.13;16.30;;;11.20;99.90;;;;;;5003583;28;20188;-47
2023/09/24 02:30:31;;;;;;;28.40;16.00;;;11.20;99.90;;;;;;4999116;28;20889;-47
2023/09/24 02:33:00;;;;;;;25.00;16.40;;;11.20;99.90;;;;;;4999214;28;20429;-47
2023/09/24 02:35:26;;;;;;;25.70;17.13;;;11.20;99.90;;;;;;5003081;28;20528;-48
2023/09/24 02:37:52;;;;;;;30.13;17.30;;;11.20;99.90;;;;;;4999711;28;20450;-47
2023/09/24 02:40:28;;;;;;;30.00;17.90;;;11.20;99.90;;;;;;5002763;28;20435;-47
2023/09/24 02:42:56;;;;;;;23.70;16.17;;;11.10;99.90;;;;;;4998915;28;20473;-47
2023/09/24 02:45:22;;;;;;;29.13;17.27;;;11.10;99.90;;;;;;4998973;28;20435;-46
2023/09/24 02:47:49;;;;;;;36.40;18.57;;;11.10;99.90;;;;;;4999088;28;20474;-47
2023/09/24 02:50:25;;;;;;;32.80;18.20;;;11.10;99.90;;;;;;4999816;28;20439;-47
2023/09/24 02:52:54;;;;;;;34.60;19.23;;;11.10;99.90;;;;;;4998964;28;20538;-47
2023/09/24 02:55:22;;;;;;;27.93;16.37;;;11.10;99.90;;;;;;4999837;28;20466;-47
2023/09/24 02:57:50;;;;;;;31.63;18.03;;;11.10;99.90;;;;;;4999434;28;20499;-47
2023/09/24 03:00:19;;;;;;;27.03;17.47;;;11.10;99.90;;;;;;4998601;28;20439;-47
2023/09/24 03:02:48;;;;;;;27.30;16.63;;;11.10;99.90;;;;;;4998670;28;20881;-47
2023/09/24 03:05:20;;;;;;;26.33;15.93;;;11.10;99.90;;;;;;4998995;28;20440;-46
2023/09/24 03:07:47;;;;;;;27.20;17.37;;;11.10;99.90;;;;;;4999226;28;20446;-45
2023/09/24 03:10:13;;;;;;;26.70;17.03;;;11.10;99.90;;;;;;5003376;28;20439;-47
2023/09/24 03:12:42;;;;;;;25.97;16.93;;;11.00;99.90;;;;;;4998382;28;20438;-46
2023/09/24 03:15:11;;;;;;;27.27;16.63;;;11.00;99.90;;;;;;4999302;28;20463;-48
2023/09/24 03:17:38;;;;;;;29.07;15.80;;;11.00;99.90;;;;;;4998699;28;20444;-44
2023/09/24 03:20:14;;;;;;;29.43;17.60;;;11.00;99.90;;;;;;4998471;28;20593;-45
2023/09/24 03:22:48;;;;;;;28.10;16.43;;;11.00;99.90;;;;;;4999512;28;20838;-45
2023/09/24 03:25:25;;;;;;;25.53;16.47;;;11.00;99.90;;;;;;4998635;28;20590;-47
2023/09/24 03:27:56;;;;;;;37.53;17.60;;;11.00;99.90;;;;;;4998312;28;20447;-45
2023/09/24 03:30:23;;;;;;;24.10;16.47;;;11.00;99.90;;;;;;4998916;28;20431;-45
2023/09/24 03:32:53;;;;;;;28.23;17.67;;;11.00;99.90;;;;;;4998570;28;20439;-45
2023/09/24 03:35:21;;;;;;;27.10;17.63;;;10.90;99.90;;;;;;4998127;28;20457;-45
2023/09/24 03:37:47;;;;;;;28.40;17.50;;;11.00;99.90;;;;;;4998669;28;20443;-45
2023/09/24 03:40:17;;;;;;;31.43;17.20;;;11.00;99.90;;;;;;4997909;28;21022;-45
2023/09/24 03:42:44;;;;;;;26.13;16.80;;;11.00;99.90;;;;;;4998771;28;20483;-45
2023/09/24 03:45:11;;;;;;;24.10;16.90;;;11.00;99.90;;;;;;4998577;28;20443;-45
2023/09/24 03:47:38;;;;;;;24.67;16.10;;;10.90;99.90;;;;;;4998284;28;20450;-45
2023/09/24 03:50:05;;;;;;;24.70;16.53;;;10.90;99.90;;;;;;4997925;28;20519;-44
2023/09/24 03:52:30;;;;;;;20.27;15.50;;;10.80;99.90;;;;;;5005494;28;20438;-45
2023/09/24 03:54:59;;;;;;;25.67;17.00;;;10.80;99.90;;;;;;4997885;28;20457;-45
2023/09/24 03:57:29;;;;;;;27.80;16.60;;;10.80;99.90;;;;;;4998190;28;20189;-45
2023/09/24 03:59:55;;;;;;;30.00;17.63;;;10.80;99.90;;;;;;4996871;28;20444;-45
2023/09/24 04:02:22;;;;;;;27.50;17.93;;;10.80;99.90;;;;;;4997453;28;20491;-48
2023/09/24 04:04:48;;;;;;;22.93;14.67;;;10.80;99.90;;;;;;5001371;28;20454;-45
2023/09/24 04:07:15;;;;;;;26.67;15.40;;;10.80;99.90;;;;;;4999445;28;20444;-45
2023/09/24 04:09:43;;;;;;;23.67;16.43;;;10.80;99.90;;;;;;4997627;28;20656;-45
2023/09/24 04:12:09;;;;;;;27.10;15.50;;;10.70;99.90;;;;;;4997751;28;20498;-45
2023/09/24 04:14:36;;;;;;;25.83;17.33;;;10.70;99.90;;;;;;4997579;28;20443;-45
2023/09/24 04:17:02;;;;;;;26.37;16.77;;;10.70;99.90;;;;;;4997477;28;20454;-45
2023/09/24 04:19:32;;;;;;;26.87;16.00;;;10.70;99.90;;;;;;4996767;28;20442;-45
2023/09/24 04:21:57;;;;;;;22.07;14.53;;;10.70;99.90;;;;;;4997240;28;20443;-45
2023/09/24 04:24:24;;;;;;;21.90;15.83;;;10.70;99.90;;;;;;4996352;28;20562;-45
2023/09/24 04:26:52;;;;;;;29.60;17.00;;;10.60;99.90;;;;;;4996957;28;20190;-45
2023/09/24 04:29:18;;;;;;;24.93;16.77;;;10.60;99.90;;;;;;4997849;28;20946;-45
2023/09/24 04:31:44;;;;;;;29.20;15.33;;;10.60;99.90;;;;;;5001488;28;20441;-45
2023/09/24 04:34:11;;;;;;;23.80;15.63;;;10.60;99.90;;;;;;4999874;28;20637;-45
2023/09/24 04:36:36;;;;;;;22.87;15.27;;;10.60;99.90;;;;;;5001388;28;20439;-45
2023/09/24 04:39:04;;;;;;;25.50;15.60;;;10.50;99.90;;;;;;4999489;28;20485;-45
2023/09/24 04:41:31;;;;;;;27.53;15.70;;;10.50;99.90;;;;;;4999980;28;20207;-45
2023/09/24 04:43:57;;;;;;;21.77;14.17;;;10.50;99.90;;;;;;4996437;28;20466;-45
2023/09/24 04:46:22;;;;;;;22.87;13.67;;;10.50;99.90;;;;;;4995925;28;20435;-45
2023/09/24 04:48:48;;;;;;;24.40;14.80;;;10.50;99.90;;;;;;4996486;28;20191;-45
2023/09/24 04:51:13;;;;;;;22.20;14.03;;;10.40;99.90;;;;;;4996386;28;20188;-48
2023/09/24 04:53:39;;;;;;;27.23;15.63;;;10.40;99.90;;;;;;4995736;28;20238;-45
2023/09/24 04:56:08;;;;;;;22.33;14.80;;;10.40;99.90;;;;;;4996593;28;20192;-45
2023/09/24 04:58:34;;;;;;;27.33;14.77;;;10.40;99.90;;;;;;4996017;28;20193;-45
2023/09/24 05:01:05;;;;;;;24.00;13.83;;;10.30;99.90;;;;;;4996042;28;20441;-45
2023/09/24 05:03:31;;;;;;;30.83;15.40;;;10.40;99.90;;;;;;5003058;28;20492;-45
2023/09/24 05:05:57;;;;;;;20.97;12.97;;;10.30;99.90;;;;;;4997218;28;20470;-45
2023/09/24 05:08:23;;;;;;;25.33;14.00;;;10.30;99.90;;;;;;5000146;28;20473;-45
2023/09/24 05:10:49;;;;;;;26.40;14.83;;;10.30;99.90;;;;;;5004505;28;20202;-45
2023/09/24 05:13:15;;;;;;;18.80;13.13;;;10.30;99.90;;;;;;5000775;28;20191;-44
2023/09/24 05:15:48;;;;;;;19.40;13.13;;;10.30;99.90;;;;;;5000050;28;20534;-45
2023/09/24 05:18:13;;;;;;;24.43;13.50;;;10.30;99.90;;;;;;5005313;28;20187;-45
2023/09/24 05:20:39;;;;;;;26.53;13.40;;;10.30;99.90;;;;;;5001479;28;20443;-45
2023/09/24 05:23:04;;;;;;;26.97;14.33;;;10.30;99.90;;;;;;4962696;28;1065059;-45
2023/09/24 05:25:34;;;;;;;19.13;13.13;;;10.30;99.90;;;;;;5001703;28;20199;-45
2023/09/24 05:27:59;;;;;;;22.50;13.70;;;10.30;99.90;;;;;;5002935;28;20191;-45
2023/09/24 05:30:25;;;;;;;26.07;14.40;;;10.30;99.90;;;;;;4996445;28;20443;-45
2023/09/24 05:32:51;;;;;;;20.27;12.03;;;10.30;99.90;;;;;;4996319;28;20196;-45
2023/09/24 05:35:16;;;;;;;21.97;13.37;;;10.30;99.90;;;;;;4996004;28;20456;-45
2023/09/24 05:37:42;;;;;;;21.23;12.10;;;10.30;99.90;;;;;;4996475;28;20191;-44
2023/09/24 05:40:09;;;;;;;25.27;12.40;;;10.30;99.90;;;;;;4996165;28;20282;-45
2023/09/24 05:42:34;;;;;;;22.00;12.60;;;10.30;99.90;;;;;;4998072;28;20228;-46
2023/09/24 05:45:00;;;;;;;21.70;11.93;;;10.30;99.90;;;;;;4996272;28;20438;-46
2023/09/24 05:47:26;;;;;;;17.80;12.90;;;10.30;99.90;;;;;;4995898;28;20243;-45
2023/09/24 05:49:53;;;;;;;22.40;13.80;;;10.30;99.90;;;;;;5003963;28;20270;-45
2023/09/24 05:52:18;;;;;;;20.90;12.13;;;10.30;99.90;;;;;;5004267;28;20462;-47
2023/09/24 05:54:44;;;;;;;24.97;13.17;;;10.30;99.90;;;;;;4996141;28;20441;-48
2023/09/24 05:57:10;;;;;;;20.43;13.30;;;10.30;99.90;;;;;;4996314;28;20293;-46
2023/09/24 05:59:36;;;;;;;22.93;12.77;;;10.30;99.90;;;;;;4995624;28;20231;-46
2023/09/24 06:02:01;;;;;;;21.83;13.10;;;10.40;99.90;;;;;;4996417;28;20509;-46
2023/09/24 06:04:27;;;;;;;19.33;12.00;;;10.40;99.90;;;;;;4995581;28;20297;-45
2023/09/24 06:06:52;;;;;;;24.43;12.93;;;10.50;99.90;;;;;;4995707;28;20198;-46
2023/09/24 06:09:18;;;;;;;22.53;12.10;;;10.50;99.90;;;;;;4996049;28;20207;-45
2023/09/24 06:11:47;;;;;;;19.67;11.20;;;10.60;99.90;;;;;;4996316;28;20191;-46
2023/09/24 06:14:12;;;;;;;17.90;11.93;;;10.60;99.90;;;;;;4996502;28;20203;-46
2023/09/24 06:16:38;;;;;;;16.60;11.23;;;10.60;99.90;;;;;;4995632;28;20457;-46
2023/09/24 06:19:04;;;;;;;18.37;11.97;;;10.70;99.90;;;;;;4996692;28;20193;-47
2023/09/24 06:21:31;;;;;;;17.50;11.67;;;10.80;99.90;;;;;;4996007;28;20539;-46
2023/09/24 06:23:57;;;;;;;17.33;12.23;;;10.80;99.90;;;;;;4998505;28;20556;-46
2023/09/24 06:26:23;;;;;;;16.23;11.67;;;10.90;99.90;;;;;;4999905;28;20486;-45
2023/09/24 06:28:49;;;;;;;13.53;10.37;;;10.90;99.90;;;;;;4999609;28;20275;-46
2023/09/24 06:31:14;;;;;;;18.30;11.63;;;11.00;99.90;;;;;;4998680;28;20582;-47
2023/09/24 06:33:40;;;;;;;17.27;10.10;;;11.00;99.90;;;;;;4999512;28;20211;-47
2023/09/24 06:36:05;;;;;;;17.17;11.07;;;11.10;99.90;;;;;;4999135;28;20279;-47
2023/09/24 06:38:32;;;;;;;17.70;11.40;;;11.10;99.90;;;;;;4999771;28;20219;-47
2023/09/24 06:41:04;;;;;;;14.87;9.80;;;11.20;99.90;;;;;;5000027;28;20204;-47
2023/09/24 06:43:30;;;;;;;14.53;10.07;;;11.20;99.90;;;;;;4999078;28;21008;-47
2023/09/24 06:45:56;;;;;;;17.10;10.40;;;11.20;99.90;;;;;;4999684;28;20446;-47
2023/09/24 06:48:23;;;;;;;14.47;10.20;;;11.30;99.90;;;;;;4998691;28;20447;-47
2023/09/24 06:50:49;;;;;;;14.40;10.27;;;11.30;99.90;;;;;;4998982;28;20442;-47
2023/09/24 06:53:15;;;;;;;14.87;10.77;;;11.40;99.90;;;;;;4999203;28;20533;-46
2023/09/24 06:55:42;;;;;;;17.67;10.20;;;11.40;99.90;;;;;;4999015;28;20473;-47
2023/09/24 06:58:08;;;;;;;12.57;10.00;;;11.50;99.90;;;;;;4998823;28;20458;-47
2023/09/24 07:00:34;;;;;;;13.30;9.03;;;11.50;99.90;;;;;;4999076;28;20537;-47
2023/09/24 07:02:59;;;;;;;12.80;8.90;;;11.70;99.90;;;;;;5000140;28;20710;-47
2023/09/24 07:05:26;;;;;;;14.33;9.20;;;11.80;99.90;;;;;;4998607;28;20594;-47
2023/09/24 07:07:51;;;;;;;17.30;10.37;;;12.10;99.90;;;;;;5002985;28;20718;-47
2023/09/24 07:10:18;;;;;;;13.00;9.67;;;12.30;99.90;;;;;;4998689;28;20533;-48
2023/09/24 07:12:44;;;;;;;11.53;8.63;;;12.70;99.90;;;;;;4998180;28;20283;-48
2023/09/24 07:15:10;;;;;;;12.07;8.77;;;13.20;99.90;;;;;;4998676;28;20530;-48
2023/09/24 07:17:37;;;;;;;10.03;7.00;;;14.00;99.90;;;;;;4998274;28;20437;-48
2023/09/24 07:20:04;;;;;;;9.37;6.77;;;14.80;1.00;;;;;;4998529;28;20495;-49
2023/09/24 07:22:30;;;;;;;12.00;7.30;;;15.50;91.20;;;;;;5000961;28;20525;-49
2023/09/24 07:24:56;;;;;;;12.67;8.30;;;16.20;1.00;;;;;;5000277;28;20997;-50
2023/09/24 07:27:21;;;;;;;10.10;7.43;;;16.70;1.00;;;;;;4998555;28;20216;-49
2023/09/24 07:29:47;;;;;;;17.40;8.97;;;17.10;99.90;;;;;;4998217;28;20195;-49
2023/09/24 07:32:14;;;;;;;14.20;8.30;;;17.50;93.60;;;;;;4998743;28;20197;-50
2023/09/24 07:34:40;;;;;;;14.20;7.77;;;18.00;17.60;;;;;;4997005;28;20443;-53
2023/09/24 07:37:08;;;;;;;13.37;8.00;;;18.30;1.00;;;;;;4998324;28;20495;-49
2023/09/24 07:39:36;;;;;;;11.33;8.57;;;18.50;1.00;;;;;;4998509;28;20185;-50
2023/09/24 07:42:02;;;;;;;11.83;8.17;;;18.70;1.00;;;;;;4998769;28;20437;-49
2023/09/24 07:44:27;;;;;;;12.10;7.67;;;19.10;1.00;;;;;;4997773;28;20449;-50
2023/09/24 07:46:54;;;;;;;12.27;6.83;;;19.40;1.00;;;;;;4997755;28;20187;-51
2023/09/24 07:49:19;;;;;;;13.70;6.90;;;19.90;1.00;;;;;;4998090;28;20232;-50
2023/09/24 07:51:45;;;;;;;8.30;5.20;;;20.20;1.00;;;;;;4997594;28;20459;-50
2023/09/24 07:54:11;;;;;;;10.40;5.33;;;20.30;1.00;;;;;;4998294;28;20279;-51
2023/09/24 07:56:41;;;;;;;10.33;5.40;;;20.40;1.00;;;;;;4997601;28;20191;-50
2023/09/24 07:59:07;;;;;;;8.00;4.60;;;20.50;1.00;;;;;;4998201;28;20203;-50
2023/09/24 08:01:33;;;;;;;8.77;4.90;;;20.60;1.00;;;;;;4997178;28;20470;-50
2023/09/24 08:03:59;;;;;;;9.23;3.70;;;20.70;1.00;;;;;;4997542;28;20967;-52
2023/09/24 08:06:28;;;;;;;7.30;4.13;;;21.00;1.00;;;;;;4997966;28;20192;-51
2023/09/24 08:08:54;;;;;;;4.93;3.17;;;21.20;1.00;;;;;;4997326;28;20195;-51
2023/09/24 08:11:20;;;;;;;7.70;3.17;;;21.50;1.00;;;;;;4997682;28;20539;-51
2023/09/24 08:13:45;;;;;;;6.23;3.30;;;21.50;1.00;;;;;;4996763;28;20522;-50
2023/09/24 08:16:11;;;;;;;16.73;3.30;;;21.70;1.00;;;;;;4998179;28;20180;-50
2023/09/24 08:18:36;;;;;;;10.20;4.07;;;21.80;1.00;;;;;;4996963;28;20234;-51
2023/09/24 08:21:02;;;;;;;3.30;2.77;;;22.10;1.00;;;;;;4997935;28;20192;-50
2023/09/24 08:23:28;;;;;;;10.80;3.57;;;22.30;1.00;;;;;;4996550;28;20247;-53
2023/09/24 08:25:53;;;;;;;5.17;3.00;;;22.00;1.00;;;;;;4996774;28;20284;-52
2023/09/24 08:28:19;;;;;;;7.83;3.70;;;21.60;1.00;;;;;;5000601;28;20282;-50
2023/09/24 08:30:45;;;;;;;4.93;3.53;;;21.60;1.00;;;;;;4998409;28;20286;-51
2023/09/24 08:33:10;;;;;;;5.53;4.37;;;22.00;1.00;;;;;;5004826;28;20189;-51
2023/09/24 08:35:37;;;;;;;4.90;4.13;;;22.30;1.00;;;;;;5001926;28;20440;-51
2023/09/24 08:38:03;;;;;;;7.77;4.90;;;22.50;1.00;;;;;;5002756;28;20271;-49
2023/09/24 08:40:30;;;;;;;6.30;4.73;;;22.60;1.00;;;;;;5014009;28;20503;-49
2023/09/24 08:42:57;;;;;;;5.20;4.00;;;22.80;1.00;;;;;;5000533;28;20639;-49
2023/09/24 08:45:26;;;;;;;4.77;4.37;;;22.80;1.00;;;;;;4994266;28;20478;-49
2023/09/24 08:47:52;;;;;;;4.20;3.30;;;22.80;1.00;;;;;;4994243;28;20483;-50
2023/09/24 08:50:18;;;;;;;6.03;4.97;;;22.60;1.00;;;;;;4994483;28;20509;-50
2023/09/24 08:52:45;;;;;;;5.23;4.40;;;22.30;1.00;;;;;;4994468;28;20439;-50
2023/09/24 08:55:12;;;;;;;6.63;4.33;;;22.00;1.00;;;;;;5007863;28;20946;-50
2023/09/24 08:57:39;;;;;;;5.87;3.77;;;22.00;1.00;;;;;;5014026;28;20454;-50
2023/09/24 09:00:06;;;;;;;4.80;4.00;;;21.90;1.00;;;;;;5013931;28;20438;-52
2023/09/24 09:02:32;;;;;;;9.00;3.77;;;21.70;1.00;;;;;;5013860;28;20504;-52
2023/09/24 09:04:58;;;;;;;4.50;3.87;;;21.10;1.00;;;;;;5013932;28;20523;-52
2023/09/24 09:07:24;;;;;;;4.07;3.67;;;20.30;1.00;;;;;;5013862;28;20505;-52
2023/09/24 09:09:54;;;;;;;5.23;3.83;;;19.70;1.00;;;;;;5013400;28;20418;-52
2023/09/24 09:12:21;;;;;;;4.43;3.80;;;19.30;1.00;;;;;;5013589;28;20187;-52
2023/09/24 09:14:47;;;;;;;3.63;3.33;;;19.00;1.00;;;;;;5013917;28;20428;-52
2023/09/24 09:17:12;;;;;;;7.70;3.43;;;18.90;1.00;;;;;;5013815;28;20767;-50
2023/09/24 09:19:52;;;;;;;4.47;3.50;;;18.70;1.00;;;;;;5013954;28;20191;-50
2023/09/24 09:22:27;;;;;;;7.50;4.10;;;18.50;1.00;;;;;;5013392;28;20223;-51
2023/09/24 09:25:05;;;;;;;7.43;3.63;;;18.40;1.00;;;;;;5013514;28;20422;-52
2023/09/24 09:27:35;;;;;;;5.40;3.50;;;18.10;1.00;;;;;;5011433;28;20537;-51
2023/09/24 09:30:17;;;;;;;6.00;3.30;;;17.80;1.00;;;;;;5013280;28;20412;-50
2023/09/24 09:32:44;;;;;;;4.70;3.77;;;17.60;1.00;;;;;;4997173;28;20779;-50
2023/09/24 09:35:10;;;;;;;57.80;36.97;;;17.70;1.00;;;;;;5012110;28;20533;-51
2023/09/24 09:37:41;;;;;;;6.17;5.03;;;18.00;1.00;;;;;;5006245;28;20496;-51
2023/09/24 09:40:08;;;;;;;5.03;3.50;;;18.10;1.00;;;;;;4996882;28;20537;-50
2023/09/24 09:42:37;;;;;;;7.53;3.87;;;18.30;1.00;;;;;;4995877;28;20482;-51
2023/09/24 09:45:07;;;;;;;6.47;4.30;;;18.40;1.00;;;;;;4997280;28;20441;-50
2023/09/24 09:47:36;;;;;;;4.63;3.57;;;18.40;1.00;;;;;;4997736;28;20843;-50
2023/09/24 09:50:03;;;;;;;7.33;3.63;;;18.60;1.00;;;;;;4996001;28;20434;-50
2023/09/24 09:52:38;;;;;;;4.90;3.47;;;18.50;1.00;;;;;;4997008;28;20475;-51
2023/09/24 09:55:05;;;;;;;6.73;3.60;;;18.50;1.00;;;;;;5002737;28;20874;-51
2023/09/24 09:57:34;;;;;;;10.63;3.50;;;18.40;1.00;;;;;;4998696;28;20447;-51
2023/09/24 10:00:10;;;;;;;8.20;2.87;;;18.40;1.00;;;;;;5000898;28;20477;-50
2023/09/24 10:02:38;;;;;;;7.60;2.77;;;18.40;1.00;;;;;;5006441;28;20486;-52
2023/09/24 10:05:06;;;;;;;5.43;2.90;;;18.60;1.00;;;;;;5004125;28;20445;-51
2023/09/24 10:07:35;;;;;;;5.77;2.60;;;18.70;1.00;;;;;;5000638;28;20481;-50
2023/09/24 10:10:01;;;;;;;7.20;3.30;;;18.60;1.00;;;;;;5006827;28;20509;-53
2023/09/24 10:12:36;;;;;;;7.87;3.13;;;18.70;1.00;;;;;;5006405;28;20949;-51
2023/09/24 10:15:34;;;;;;;4.70;3.20;;;18.80;1.00;;;;;;5001238;28;20187;-51
2023/09/24 10:18:11;;;;;;;5.17;3.10;;;19.00;1.00;;;;;;4987361;28;20799;-51
2023/09/24 10:20:48;;;;;;;5.97;3.13;;;19.20;1.00;;;;;;5000946;28;20670;-52
2023/09/24 10:23:43;;;;;;;6.60;3.37;;;19.50;1.00;;;;;;5003238;28;20504;-51
2023/09/24 10:26:48;;;;;;;9.43;4.07;;;19.60;1.00;;;;;;5001740;28;20490;-53
2023/09/24 10:29:16;;;;;;;7.43;3.50;;;19.40;1.00;;;;;;5001976;28;20490;-50
2023/09/24 10:32:11;;;;;;;7.50;3.43;;;19.50;1.00;;;;;;4999110;28;20943;-52
2023/09/24 10:34:54;;;;;;;4.30;3.20;;;20.10;1.00;;;;;;5001948;28;20458;-51
2023/09/24 10:37:22;;;;;;;4.93;3.20;;;20.60;1.00;;;;;;4998670;28;20462;-51
2023/09/24 10:40:04;;;;;;;3.70;3.20;;;20.90;1.00;;;;;;5003030;28;20977;-51
2023/09/24 10:42:30;;;;;;;40.60;31.00;;;20.80;1.00;;;;;;5003124;28;20534;-51
2023/09/24 10:45:08;;;;;;;4.53;3.43;;;21.00;1.00;;;;;;4998545;28;20439;-53
2023/09/24 10:47:44;;;;;;;5.07;3.07;;;21.40;1.00;;;;;;5000761;28;20523;-52
2023/09/24 10:50:18;;;;;;;4.23;2.83;;;22.50;1.00;;;;;;4999286;28;20864;-51
2023/09/24 10:52:59;;;;;;;4.57;3.30;;;23.60;1.00;;;;;;4997167;28;20453;-52
2023/09/24 10:55:29;;;;;;;4.03;2.67;;;24.20;1.00;;;;;;5001953;28;20463;-49
2023/09/24 10:58:25;;;;;;;5.53;3.50;;;24.20;1.00;;;;;;4999599;28;20475;-51
2023/09/24 11:00:51;;;;;;;4.80;2.67;;;23.70;1.00;;;;;;4999473;28;20849;-52
2023/09/24 11:03:16;;;;;;;3.70;3.00;;;23.80;1.00;;;;;;4998958;28;20483;-50
2023/09/24 11:05:47;;;;;;;5.17;3.30;;;24.20;1.00;;;;;;4997877;28;20988;-51
2023/09/24 11:08:15;;;;;;;4.73;3.00;;;24.90;1.00;;;;;;5002019;28;20191;-50
2023/09/24 11:10:41;;;;;;;4.33;2.80;;;24.60;1.00;;;;;;5001033;28;20572;-51
2023/09/24 11:13:07;;;;;;;4.90;3.20;;;24.10;1.00;;;;;;5002387;28;20450;-50
2023/09/24 11:15:38;;;;;;;3.37;3.07;;;23.30;1.00;;;;;;5001496;28;20448;-51
2023/09/24 11:18:05;;;;;;;7.97;3.07;;;22.90;1.00;;;;;;4999661;28;20968;-53
2023/09/24 11:20:32;;;;;;;4.47;3.50;;;23.20;1.00;;;;;;5002346;28;20451;-52
2023/09/24 11:23:01;;;;;;;5.50;3.00;;;23.30;1.00;;;;;;5003526;28;20524;-51
2023/09/24 11:25:28;;;;;;;3.53;2.70;;;22.60;1.00;;;;;;4998708;28;21053;-51
2023/09/24 11:27:59;;;;;;;3.90;3.27;;;22.20;1.00;;;;;;5002356;28;20462;-53
2023/09/24 11:30:37;;;;;;;4.90;2.83;;;21.50;1.00;;;;;;4999956;28;20518;-54
2023/09/24 11:33:10;;;;;;;3.43;2.63;;;21.40;1.00;;;;;;4998206;28;21015;-52
2023/09/24 11:35:37;;;;;;;6.87;4.30;;;21.30;1.00;;;;;;5013039;28;20430;-53
2023/09/24 11:38:03;;;;;;;5.07;3.10;;;20.60;1.00;;;;;;5005027;28;20444;-53
2023/09/24 11:40:32;;;;;;;5.20;2.80;;;20.00;1.00;;;;;;4998721;28;20774;-52
2023/09/24 11:43:00;;;;;;;3.33;2.90;;;20.10;1.00;;;;;;4998996;28;20224;-52
2023/09/24 11:45:42;;;;;;;33.87;28.93;;;20.50;1.00;;;;;;4998484;28;20444;-52
2023/09/24 11:48:12;;;;;;;643.67;441.97;;;20.20;1.00;;;;;;5005142;28;20544;-53
2023/09/24 11:50:40;;;;;;;289.77;162.83;;;19.90;1.00;;;;;;5001848;28;20813;-52
2023/09/24 11:53:06;;;;;;;21.33;12.73;;;19.90;1.00;;;;;;4998329;28;20531;-52
2023/09/24 11:55:32;;;;;;;2.90;2.40;;;19.70;1.00;;;;;;5002415;28;20475;-52
2023/09/24 11:57:57;;;;;;;4.40;3.57;;;19.40;1.00;;;;;;4998330;28;20455;-51
2023/09/24 12:00:24;;;;;;;5.10;4.30;;;19.40;1.00;;;;;;5001064;28;20644;-52
2023/09/24 12:02:49;;;;;;;11.80;6.30;;;19.30;1.00;;;;;;4997056;28;20230;-52
2023/09/24 12:05:15;;;;;;;14.13;9.83;;;19.10;1.00;;;;;;4999012;28;20434;-51
2023/09/24 12:07:42;;;;;;;5.23;3.47;;;18.80;1.00;;;;;;5002198;28;20199;-52
2023/09/24 12:10:08;;;;;;;4.60;3.63;;;18.70;1.00;;;;;;5000038;28;20438;-52
2023/09/24 12:12:34;;;;;;;11.07;6.10;;;19.30;1.00;;;;;;4997053;28;20447;-53
2023/09/24 12:15:00;;;;;;;4.43;3.10;;;19.80;1.00;;;;;;5003681;28;20440;-52
2023/09/24 12:17:26;;;;;;;3.97;3.10;;;19.70;1.00;;;;;;4997653;28;20454;-54
2023/09/24 12:19:52;;;;;;;5.73;3.67;;;19.30;1.00;;;;;;4996330;28;20439;-53
2023/09/24 12:22:18;;;;;;;3.17;2.90;;;18.80;1.00;;;;;;5000296;28;20582;-52
2023/09/24 12:24:44;;;;;;;3.40;3.10;;;18.60;1.00;;;;;;4997078;28;20244;-52
2023/09/24 12:27:09;;;;;;;4.70;3.37;;;18.60;1.00;;;;;;4997207;28;20953;-52
2023/09/24 12:29:35;;;;;;;3.97;3.40;;;18.80;1.00;;;;;;4997498;28;20190;-52
2023/09/24 12:32:00;;;;;;;3.20;2.90;;;19.10;1.00;;;;;;4998564;28;20182;-52
2023/09/24 12:34:26;;;;;;;3.70;3.30;;;19.60;1.00;;;;;;5000530;28;20645;-54
2023/09/24 12:36:51;;;;;;;3.33;3.03;;;20.70;1.00;;;;;;4998184;28;20214;-52
2023/09/24 12:39:19;;;;;;;3.60;3.23;;;21.40;1.00;;;;;;5001085;28;20210;-52
2023/09/24 12:41:46;;;;;;;6.10;3.80;;;21.30;1.00;;;;;;5000551;28;20211;-53